createdAt,value
2023-01-09T00:01:27.600Z,95639.88
2023-01-09T00:03:55.549Z,95626.31
2023-01-09T00:06:23.790Z,95603.75
2023-01-09T00:08:51.650Z,95630.03
2023-01-09T00:11:19.654Z,95632.16
2023-01-09T00:13:48.109Z,95633.75
2023-01-09T00:16:16.556Z,95617.31
2023-01-09T00:18:45.844Z,95618.59
2023-01-09T00:21:14.797Z,95567.13
2023-01-09T00:23:42.790Z,95596.59
2023-01-09T00:26:13.678Z,95624.22
2023-01-09T00:28:42.066Z,95599.53
2023-01-09T00:31:10.380Z,95626.56
2023-01-09T00:33:42.048Z,95620.41
2023-01-09T00:36:12.036Z,95605.56
2023-01-09T00:38:41.212Z,95635.34
2023-01-09T00:41:13.061Z,95554.06
2023-01-09T00:43:46.633Z,95595.47
2023-01-09T00:46:16.121Z,95571.34
2023-01-09T00:48:47.629Z,95625.28
2023-01-09T00:51:18.422Z,95568.97
2023-01-09T00:53:47.234Z,95620.53
2023-01-09T00:56:17.956Z,95605.38
2023-01-09T00:58:46.556Z,95572.44
2023-01-09T01:01:14.739Z,95596.06
2023-01-09T01:03:42.748Z,95615.19
2023-01-09T01:06:27.912Z,95597.69
2023-01-09T01:08:57.202Z,95598.16
2023-01-09T01:11:25.476Z,95617.56
2023-01-09T01:13:53.483Z,95626.88
2023-01-09T01:16:21.443Z,95618.38
2023-01-09T01:18:49.352Z,95587.00
2023-01-09T01:21:18.184Z,95594.97
2023-01-09T01:23:46.058Z,95621.56
2023-01-09T01:26:17.308Z,95597.63
2023-01-09T01:28:45.622Z,95428.84
2023-01-09T01:31:18.144Z,95602.41
2023-01-09T01:33:46.245Z,95584.34
2023-01-09T01:36:16.216Z,95592.59
2023-01-09T01:38:44.436Z,95572.72
2023-01-09T01:41:12.329Z,95581.75
2023-01-09T01:43:56.298Z,95575.91
2023-01-09T01:46:24.326Z,95575.09
2023-01-09T01:49:00.150Z,95578.03
2023-01-09T01:51:31.931Z,95575.91
2023-01-09T01:54:04.963Z,95553.84
2023-01-09T01:56:37.544Z,95554.13
2023-01-09T01:59:10.875Z,95549.31
2023-01-09T02:01:41.267Z,95555.66
2023-01-09T02:04:10.397Z,95510.56
2023-01-09T02:06:39.221Z,95550.34
2023-01-09T02:09:08.006Z,95547.41
2023-01-09T02:11:36.084Z,95493.00
2023-01-09T02:14:04.322Z,95546.66
2023-01-09T02:16:43.302Z,95514.28
2023-01-09T02:19:34.771Z,95549.03
2023-01-09T02:22:13.529Z,95553.03
2023-01-09T02:25:06.254Z,95543.47
2023-01-09T02:28:15.554Z,95493.59
2023-01-09T02:30:47.657Z,95494.94
2023-01-09T02:33:40.269Z,95536.63
2023-01-09T02:36:20.603Z,95534.47
2023-01-09T02:38:57.431Z,95534.72
2023-01-09T02:41:33.321Z,95532.88
2023-01-09T02:44:15.811Z,95529.97
2023-01-09T02:46:45.109Z,95537.38
2023-01-09T02:49:13.983Z,95515.13
2023-01-09T02:51:52.592Z,95481.66
2023-01-09T02:54:34.223Z,95536.34
2023-01-09T02:57:23.170Z,95538.75
2023-01-09T03:00:07.624Z,95537.69
2023-01-09T03:02:44.972Z,95527.84
2023-01-09T03:05:18.766Z,95537.66
2023-01-09T03:07:51.573Z,95527.06
2023-01-09T03:10:22.560Z,95390.38
2023-01-09T03:12:54.443Z,95529.19
2023-01-09T03:15:25.942Z,95517.78
2023-01-09T03:17:56.494Z,95512.19
2023-01-09T03:20:27.813Z,95520.41
2023-01-09T03:22:57.325Z,95517.78
2023-01-09T03:25:26.164Z,95519.06
2023-01-09T03:27:57.965Z,95517.78
2023-01-09T03:30:27.573Z,95533.16
2023-01-09T03:32:58.734Z,95535.53
2023-01-09T03:35:27.237Z,95508.44
2023-01-09T03:37:55.571Z,95541.88
2023-01-09T03:40:23.489Z,95535.25
2023-01-09T03:42:51.320Z,95538.13
2023-01-09T03:45:19.199Z,95533.63
2023-01-09T03:47:47.133Z,95542.38
2023-01-09T03:50:16.981Z,95539.16
2023-01-09T03:52:44.862Z,95538.13
2023-01-09T03:55:14.812Z,95539.19
2023-01-09T03:57:45.548Z,95539.16
2023-01-09T04:00:14.428Z,95490.75
2023-01-09T04:02:43.247Z,95536.44
2023-01-09T04:05:11.652Z,95529.06
2023-01-09T04:07:40.923Z,95533.34
2023-01-09T04:10:09.877Z,95514.78
2023-01-09T04:12:37.757Z,95518.75
2023-01-09T04:15:06.569Z,95526.97
2023-01-09T04:17:34.528Z,95443.09
2023-01-09T04:20:02.443Z,95483.97
2023-01-09T04:22:31.416Z,95526.22
2023-01-09T04:25:00.718Z,95517.47
2023-01-09T04:27:28.736Z,95468.06
2023-01-09T04:29:56.597Z,95509.97
2023-01-09T04:32:24.449Z,95525.88
2023-01-09T04:34:52.281Z,95521.13
2023-01-09T04:37:20.163Z,95523.53
2023-01-09T04:39:48.260Z,95499.94
2023-01-09T04:42:17.506Z,95515.88
2023-01-09T04:44:45.333Z,95508.69
2023-01-09T04:47:13.639Z,95416.00
2023-01-09T04:49:41.649Z,95518.44
2023-01-09T04:52:09.651Z,95509.97
2023-01-09T04:54:39.542Z,95511.50
2023-01-09T04:57:07.639Z,95512.06
2023-01-09T04:59:37.117Z,95506.78
2023-01-09T05:02:05.064Z,95503.88
2023-01-09T05:04:33.246Z,95511.81
2023-01-09T05:07:01.122Z,95498.81
2023-01-09T05:09:29.315Z,95494.56
2023-01-09T05:11:57.204Z,95502.28
2023-01-09T05:14:25.200Z,95458.13
2023-01-09T05:16:54.460Z,95444.84
2023-01-09T05:19:23.696Z,95517.31
2023-01-09T05:21:51.873Z,95494.41
2023-01-09T05:24:19.953Z,95512.00
2023-01-09T05:26:48.080Z,95512.50
2023-01-09T05:29:15.920Z,95514.09
2023-01-09T05:31:44.056Z,95521.00
2023-01-09T05:34:13.305Z,95488.59
2023-01-09T05:36:41.209Z,95497.88
2023-01-09T05:39:09.098Z,95518.66
2023-01-09T05:41:37.014Z,95494.22
2023-01-09T05:44:05.672Z,95505.69
2023-01-09T05:46:34.041Z,95482.88
2023-01-09T05:49:02.178Z,95461.34
2023-01-09T05:51:32.140Z,95496.69
2023-01-09T05:54:00.322Z,95512.09
2023-01-09T05:56:30.065Z,95504.09
2023-01-09T05:58:58.011Z,95420.16
2023-01-09T06:01:25.921Z,95505.94
2023-01-09T06:03:53.870Z,95479.13
2023-01-09T06:06:22.798Z,95501.19
2023-01-09T06:08:52.031Z,95491.41
2023-01-09T06:11:19.931Z,95481.91
2023-01-09T06:13:47.954Z,95496.25
2023-01-09T06:16:15.946Z,95416.63
2023-01-09T06:18:43.862Z,95465.97
2023-01-09T06:21:11.754Z,95492.28
2023-01-09T06:23:39.745Z,95498.13
2023-01-09T06:26:09.000Z,95430.91
2023-01-09T06:28:36.939Z,95475.00
2023-01-09T06:31:05.267Z,95455.34
2023-01-09T06:33:33.431Z,95459.34
2023-01-09T06:36:01.360Z,95437.84
2023-01-09T06:38:29.233Z,95491.47
2023-01-09T06:40:57.136Z,95499.44
2023-01-09T06:43:26.399Z,95466.53
2023-01-09T06:45:54.635Z,95478.75
2023-01-09T06:48:24.998Z,95485.63
2023-01-09T06:50:52.899Z,95461.47
2023-01-09T06:53:21.584Z,95479.00
2023-01-09T06:55:49.495Z,95488.22
2023-01-09T06:58:17.526Z,95482.38
2023-01-09T07:00:46.848Z,95483.59
2023-01-09T07:03:19.739Z,95451.69
2023-01-09T07:05:48.215Z,95463.78
2023-01-09T07:08:16.304Z,95481.06
2023-01-09T07:10:44.726Z,95448.81
2023-01-09T07:13:12.897Z,95462.66
2023-01-09T07:15:40.848Z,95478.00
2023-01-09T07:18:10.211Z,95442.09
2023-01-09T07:20:41.277Z,95473.13
2023-01-09T07:23:10.364Z,95209.41
2023-01-09T07:25:38.515Z,95455.47
2023-01-09T07:28:06.746Z,95481.50
2023-01-09T07:30:34.668Z,95461.94
2023-01-09T07:33:04.022Z,95435.84
2023-01-09T07:35:33.971Z,95456.34
2023-01-09T07:38:01.850Z,95451.75
2023-01-09T07:40:29.792Z,95470.47
2023-01-09T07:42:57.739Z,95453.31
2023-01-09T07:45:25.591Z,95488.03
2023-01-09T07:47:53.558Z,95445.91
2023-01-09T07:50:21.550Z,95488.97
2023-01-09T07:52:50.772Z,95482.44
2023-01-09T07:55:18.916Z,95486.88
2023-01-09T07:57:51.179Z,95327.69
2023-01-09T08:00:21.119Z,95506.31
2023-01-09T08:02:53.812Z,95500.13
2023-01-09T08:05:22.405Z,95501.03
2023-01-09T08:07:54.114Z,95480.66
2023-01-09T08:10:22.187Z,95502.47
2023-01-09T08:12:50.692Z,95118.47
2023-01-09T08:15:18.632Z,95500.75
2023-01-09T08:17:47.250Z,95442.25
2023-01-09T08:20:17.002Z,95506.25
2023-01-09T08:22:49.617Z,95291.78
2023-01-09T08:25:19.549Z,95505.38
2023-01-09T08:27:47.852Z,95503.03
2023-01-09T08:30:16.684Z,95448.75
2023-01-09T08:32:44.812Z,95499.63
2023-01-09T08:35:12.756Z,95504.19
2023-01-09T08:37:40.652Z,95498.94
2023-01-09T08:40:10.177Z,95497.06
2023-01-09T08:42:57.013Z,95503.69
2023-01-09T08:45:42.335Z,95501.66
2023-01-09T08:48:10.427Z,95479.38
2023-01-09T08:50:38.358Z,95486.44
2023-01-09T08:53:06.271Z,95491.41
2023-01-09T08:55:34.207Z,95490.91
2023-01-09T08:58:03.486Z,95485.53
2023-01-09T09:00:31.646Z,95464.16
2023-01-09T09:03:02.000Z,95419.09
2023-01-09T09:05:31.982Z,95285.44
2023-01-09T09:08:00.529Z,95416.47
2023-01-09T09:10:30.294Z,95454.63
2023-01-09T09:12:59.766Z,95453.88
2023-01-09T09:15:29.743Z,95367.59
2023-01-09T09:17:59.486Z,95447.38
2023-01-09T09:20:29.665Z,95440.09
2023-01-09T09:22:57.755Z,95442.94
2023-01-09T09:25:25.991Z,95439.44
2023-01-09T09:27:55.875Z,95432.50
2023-01-09T09:30:25.195Z,95425.47
2023-01-09T09:32:54.660Z,95356.22
2023-01-09T09:35:22.731Z,95428.09
2023-01-09T09:37:58.906Z,95380.63
2023-01-09T09:40:42.862Z,95397.38
2023-01-09T09:43:43.425Z,95399.53
2023-01-09T09:46:20.410Z,95378.53
2023-01-09T09:48:53.745Z,95373.16
2023-01-09T09:51:39.507Z,95352.94
2023-01-09T09:54:13.849Z,95355.63
2023-01-09T09:56:49.213Z,95352.31
2023-01-09T09:59:20.040Z,95338.78
2023-01-09T10:01:55.235Z,95335.06
2023-01-09T10:04:28.000Z,95316.03
2023-01-09T10:06:59.808Z,95300.94
2023-01-09T10:09:40.423Z,95297.47
2023-01-09T10:12:23.179Z,95296.94
2023-01-09T10:14:51.447Z,95294.25
2023-01-09T10:17:36.304Z,95252.66
2023-01-09T10:20:34.273Z,95180.13
2023-01-09T10:23:17.436Z,95280.38
2023-01-09T10:25:50.900Z,95273.09
2023-01-09T10:28:35.667Z,95282.16
2023-01-09T10:31:12.121Z,95278.84
2023-01-09T10:33:52.566Z,95223.22
2023-01-09T10:36:52.246Z,95277.78
2023-01-09T10:39:23.702Z,95257.09
2023-01-09T10:41:59.486Z,95241.97
2023-01-09T10:44:35.299Z,95252.31
2023-01-09T10:47:07.137Z,95248.03
2023-01-09T10:49:36.319Z,95245.03
2023-01-09T10:52:16.889Z,95167.06
2023-01-09T10:54:57.839Z,95217.13
2023-01-09T10:57:39.512Z,95231.44
2023-01-09T11:00:15.153Z,95212.97
2023-01-09T11:02:43.271Z,95212.97
2023-01-09T11:05:14.050Z,95207.81
2023-01-09T11:07:46.346Z,95194.94
2023-01-09T11:10:15.950Z,95194.38
2023-01-09T11:12:44.192Z,95191.44
2023-01-09T11:15:29.119Z,95188.53
2023-01-09T11:18:15.113Z,95192.72
2023-01-09T11:20:43.040Z,95192.97
2023-01-09T11:23:28.748Z,95180.81
2023-01-09T11:25:58.961Z,95172.94
2023-01-09T11:28:27.216Z,95195.28
2023-01-09T11:31:00.889Z,95162.19
2023-01-09T11:33:31.265Z,95144.56
2023-01-09T11:36:06.054Z,95188.75
2023-01-09T11:38:49.184Z,95185.75
2023-01-09T11:41:22.949Z,95126.22
2023-01-09T11:43:52.875Z,95178.00
2023-01-09T11:46:39.640Z,95169.31
2023-01-09T11:49:22.701Z,95150.84
2023-01-09T11:52:16.296Z,95174.38
2023-01-09T11:54:49.650Z,95125.31
2023-01-09T11:57:17.973Z,95157.47
2023-01-09T11:59:45.900Z,95156.38
2023-01-09T12:02:41.189Z,95158.75
2023-01-09T12:05:21.245Z,95137.78
2023-01-09T12:08:03.055Z,95150.84
2023-01-09T12:10:50.719Z,95140.47
2023-01-09T12:13:32.316Z,95135.56
2023-01-09T12:16:12.548Z,95125.75
2023-01-09T12:18:52.301Z,95079.22
2023-01-09T12:21:33.633Z,95111.25
2023-01-09T12:24:18.711Z,95057.94
2023-01-09T12:26:55.737Z,95119.63
2023-01-09T12:29:37.900Z,95097.03
2023-01-09T12:32:17.053Z,95115.66
2023-01-09T12:34:59.216Z,95101.94
2023-01-09T12:37:56.786Z,95071.47
2023-01-09T12:40:44.148Z,95080.78
2023-01-09T12:43:23.262Z,95117.69
2023-01-09T12:46:03.439Z,95096.03
2023-01-09T12:48:53.508Z,95094.03
2023-01-09T12:51:29.551Z,95066.09
2023-01-09T12:54:03.391Z,95097.06
2023-01-09T12:56:35.559Z,95089.00
2023-01-09T12:59:17.848Z,95088.34
2023-01-09T13:01:49.219Z,95085.84
2023-01-09T13:04:23.164Z,95085.00
2023-01-09T13:06:55.382Z,95056.94
2023-01-09T13:09:27.700Z,95025.50
2023-01-09T13:12:06.176Z,95075.69
2023-01-09T13:14:50.219Z,95074.13
2023-01-09T13:17:24.682Z,95080.13
2023-01-09T13:19:53.279Z,95080.59
2023-01-09T13:22:23.803Z,95088.13
2023-01-09T13:25:30.110Z,95077.88
2023-01-09T13:28:01.754Z,95077.72
2023-01-09T13:30:49.058Z,95065.41
2023-01-09T13:33:21.377Z,95042.19
2023-01-09T13:35:52.139Z,95066.00
2023-01-09T13:38:23.895Z,95030.94
2023-01-09T13:41:26.962Z,95058.38
2023-01-09T13:44:00.825Z,95058.53
2023-01-09T13:46:40.649Z,95071.22
2023-01-09T13:49:55.192Z,95044.63
2023-01-09T13:52:38.199Z,95034.78
2023-01-09T13:55:35.604Z,95015.22
2023-01-09T13:58:23.856Z,95072.00
2023-01-09T14:00:57.904Z,95040.44
2023-01-09T14:03:32.804Z,95057.38
2023-01-09T14:06:17.608Z,95089.13
2023-01-09T14:08:48.646Z,95068.63
2023-01-09T14:11:23.086Z,95059.66
2023-01-09T14:14:01.462Z,95067.88
2023-01-09T14:16:31.770Z,95005.13
2023-01-09T14:19:06.536Z,95059.91
2023-01-09T14:21:50.765Z,95055.00
2023-01-09T14:24:24.894Z,95047.09
2023-01-09T14:26:57.119Z,95050.41
2023-01-09T14:29:52.528Z,94999.00
2023-01-09T14:32:45.509Z,95032.28
2023-01-09T14:35:25.362Z,95035.69
2023-01-09T14:38:04.407Z,95017.44
2023-01-09T14:40:33.490Z,95014.53
2023-01-09T14:43:15.610Z,94999.72
2023-01-09T14:45:49.789Z,95019.88
2023-01-09T14:48:18.500Z,95010.44
2023-01-09T14:50:51.242Z,95026.09
2023-01-09T14:53:23.260Z,94978.94
2023-01-09T14:55:54.441Z,95023.84
2023-01-09T14:58:27.944Z,94954.66
2023-01-09T15:01:02.948Z,95009.81
2023-01-09T15:03:37.990Z,95019.06
2023-01-09T15:06:11.780Z,95006.88
2023-01-09T15:08:39.834Z,95008.00
2023-01-09T15:11:07.759Z,94987.22
2023-01-09T15:13:38.763Z,94991.56
2023-01-09T15:16:08.506Z,94942.75
2023-01-09T15:18:43.243Z,94996.53
2023-01-09T15:21:20.343Z,94986.28
2023-01-09T15:23:48.226Z,94993.63
2023-01-09T15:26:25.805Z,94982.06
2023-01-09T15:28:54.732Z,94995.03
2023-01-09T15:31:25.480Z,94972.75
2023-01-09T15:33:54.244Z,94977.84
2023-01-09T15:36:26.481Z,94980.06
2023-01-09T15:38:55.605Z,94984.50
2023-01-09T15:41:44.517Z,94983.22
2023-01-09T15:44:17.236Z,94992.91
2023-01-09T15:46:46.638Z,94993.13
2023-01-09T15:49:15.499Z,94992.16
2023-01-09T15:51:46.304Z,94978.41
2023-01-09T15:54:16.114Z,94966.47
2023-01-09T15:56:46.268Z,94977.81
2023-01-09T15:59:25.126Z,95000.25
2023-01-09T16:02:19.793Z,94981.88
2023-01-09T16:04:48.079Z,94991.56
2023-01-09T16:07:19.807Z,94990.56
2023-01-09T16:09:49.900Z,94972.00
2023-01-09T16:12:21.547Z,94965.88
2023-01-09T16:14:53.876Z,94952.81
2023-01-09T16:17:26.830Z,94894.16
2023-01-09T16:19:57.865Z,94910.75
2023-01-09T16:22:29.072Z,94974.75
2023-01-09T16:24:58.856Z,94891.22
2023-01-09T16:27:28.808Z,94941.19
2023-01-09T16:29:58.988Z,94937.00
2023-01-09T16:32:30.779Z,94969.72
2023-01-09T16:35:04.674Z,94932.28
2023-01-09T16:37:36.069Z,94932.19
2023-01-09T16:40:24.204Z,94971.47
2023-01-09T16:43:07.099Z,94946.59
2023-01-09T16:45:37.521Z,94907.91
2023-01-09T16:48:13.572Z,94915.91
2023-01-09T16:50:42.579Z,94913.72
2023-01-09T16:53:16.491Z,94688.94
2023-01-09T16:55:44.936Z,94955.22
2023-01-09T16:58:18.393Z,94932.78
2023-01-09T17:00:47.903Z,94942.97
2023-01-09T17:03:16.813Z,94943.75
2023-01-09T17:05:45.164Z,94953.03
2023-01-09T17:08:22.312Z,94954.81
2023-01-09T17:10:50.475Z,94962.00
2023-01-09T17:13:18.336Z,94894.38
2023-01-09T17:15:46.828Z,94932.88
2023-01-09T17:18:16.831Z,94960.16
2023-01-09T17:20:46.027Z,94945.34
2023-01-09T17:23:14.893Z,94928.16
2023-01-09T17:26:01.975Z,94919.06
2023-01-09T17:28:33.698Z,94937.53
2023-01-09T17:31:02.182Z,94942.16
2023-01-09T17:33:30.690Z,94941.00
2023-01-09T17:35:58.698Z,94937.22
2023-01-09T17:38:26.601Z,94927.66
2023-01-09T17:40:56.649Z,94922.34
2023-01-09T17:43:24.564Z,94889.84
2023-01-09T17:45:52.648Z,94700.78
2023-01-09T17:48:25.121Z,94905.25
2023-01-09T17:50:52.951Z,94909.97
2023-01-09T17:53:22.692Z,94895.06
2023-01-09T17:55:50.685Z,94911.06
2023-01-09T17:58:26.366Z,94885.88
2023-01-09T18:00:54.398Z,94918.16
2023-01-09T18:03:23.222Z,94913.63
2023-01-09T18:05:52.796Z,94886.78
2023-01-09T18:08:20.730Z,94902.97
2023-01-09T18:10:49.067Z,94882.59
2023-01-09T18:13:17.849Z,94837.50
2023-01-09T18:15:47.606Z,94845.31
2023-01-09T18:18:16.392Z,94869.59
2023-01-09T18:20:46.295Z,94840.88
2023-01-09T18:23:14.712Z,94811.28
2023-01-09T18:25:43.511Z,94890.75
2023-01-09T18:28:15.165Z,94904.66
2023-01-09T18:30:45.132Z,94901.97
2023-01-09T18:33:15.358Z,94865.38
2023-01-09T18:35:43.663Z,94874.84
2023-01-09T18:38:12.057Z,94893.59
2023-01-09T18:40:41.691Z,94890.34
2023-01-09T18:43:11.533Z,94897.72
2023-01-09T18:45:40.111Z,94890.81
2023-01-09T18:48:09.562Z,94912.75
2023-01-09T18:50:38.813Z,94899.50
2023-01-09T18:53:07.507Z,94892.63
2023-01-09T18:55:37.513Z,94842.88
2023-01-09T18:58:05.976Z,94894.97
2023-01-09T19:00:33.862Z,94908.72
2023-01-09T19:03:01.797Z,94900.72
2023-01-09T19:05:29.933Z,94891.63
2023-01-09T19:07:59.141Z,94895.28
2023-01-09T19:10:26.992Z,94870.47
2023-01-09T19:12:54.835Z,94883.63
2023-01-09T19:15:23.902Z,94858.56
2023-01-09T19:17:51.898Z,94871.28
2023-01-09T19:20:20.146Z,94790.56
2023-01-09T19:22:48.028Z,94874.44
2023-01-09T19:25:17.460Z,94861.72
2023-01-09T19:27:45.313Z,94883.31
2023-01-09T19:30:14.685Z,94875.53
2023-01-09T19:32:42.526Z,94858.75
2023-01-09T19:35:10.714Z,94795.69
2023-01-09T19:37:38.614Z,94822.53
2023-01-09T19:40:07.660Z,94805.34
2023-01-09T19:42:36.913Z,94839.59
2023-01-09T19:45:05.905Z,94843.84
2023-01-09T19:47:36.082Z,94865.16
2023-01-09T19:50:05.256Z,94822.53
2023-01-09T19:52:33.238Z,94847.28
2023-01-09T19:55:01.275Z,94878.19
2023-01-09T19:57:29.177Z,94860.63
2023-01-09T19:59:58.462Z,94856.88
2023-01-09T20:02:28.000Z,94822.13
2023-01-09T20:04:56.153Z,94840.88
2023-01-09T20:07:24.089Z,94794.41
2023-01-09T20:09:51.987Z,94824.00
2023-01-09T20:12:20.054Z,94828.03
2023-01-09T20:14:48.259Z,94832.09
2023-01-09T20:17:17.947Z,94773.88
2023-01-09T20:19:47.439Z,94770.44
2023-01-09T20:22:15.366Z,94796.03
2023-01-09T20:24:43.936Z,94803.56
2023-01-09T20:27:12.260Z,94773.16
2023-01-09T20:29:40.155Z,94788.66
2023-01-09T20:32:08.941Z,94805.75
2023-01-09T20:34:38.206Z,94754.13
2023-01-09T20:37:06.172Z,94756.16
2023-01-09T20:39:34.037Z,94684.72
2023-01-09T20:42:01.912Z,94772.03
2023-01-09T20:44:29.938Z,94791.34
2023-01-09T20:46:57.905Z,94779.00
2023-01-09T20:49:25.863Z,94786.91
2023-01-09T20:51:55.126Z,94774.56
2023-01-09T20:54:23.482Z,94749.31
2023-01-09T20:56:52.090Z,94770.31
2023-01-09T20:59:22.046Z,94761.19
2023-01-09T21:01:50.213Z,94767.06
2023-01-09T21:04:18.916Z,94786.81
2023-01-09T21:06:49.667Z,94757.00
2023-01-09T21:09:20.332Z,94519.38
2023-01-09T21:11:48.280Z,94756.50
2023-01-09T21:14:16.263Z,94719.69
2023-01-09T21:16:53.825Z,94695.66
2023-01-09T21:19:22.717Z,94709.47
2023-01-09T21:21:53.062Z,94731.31
2023-01-09T21:24:22.718Z,94661.56
2023-01-09T21:26:50.574Z,94730.84
2023-01-09T21:29:18.471Z,94737.25
2023-01-09T21:31:46.530Z,94739.03
2023-01-09T21:34:14.882Z,94736.06
2023-01-09T21:36:44.895Z,94745.66
2023-01-09T21:39:12.886Z,94671.38
2023-01-09T21:42:02.031Z,94721.16
2023-01-09T21:44:48.139Z,94692.09
2023-01-09T21:47:16.301Z,94732.31
2023-01-09T21:49:45.651Z,94663.53
2023-01-09T21:52:14.963Z,94661.47
2023-01-09T21:54:43.096Z,94676.63
2023-01-09T21:57:13.047Z,94706.78
2023-01-09T21:59:40.911Z,94698.59
2023-01-09T22:02:12.382Z,94692.47
2023-01-09T22:04:42.862Z,94707.19
2023-01-09T22:07:11.234Z,94668.53
2023-01-09T22:09:39.162Z,94698.91
2023-01-09T22:12:07.502Z,94691.72
2023-01-09T22:14:38.833Z,94707.31
2023-01-09T22:17:06.815Z,94698.03
2023-01-09T22:19:34.658Z,94674.56
2023-01-09T22:22:07.187Z,94670.13
2023-01-09T22:24:35.998Z,94669.03
2023-01-09T22:27:04.145Z,94704.22
2023-01-09T22:29:32.000Z,94676.50
2023-01-09T22:32:01.269Z,94618.78
2023-01-09T22:34:29.381Z,94693.94
2023-01-09T22:36:57.338Z,94635.50
2023-01-09T22:39:25.500Z,94675.47
2023-01-09T22:41:55.154Z,94652.19
2023-01-09T22:44:23.124Z,94683.78
2023-01-09T22:46:50.995Z,94690.50
2023-01-09T22:49:20.192Z,94638.44
2023-01-09T22:51:48.552Z,94658.53
2023-01-09T22:54:16.742Z,94694.75
2023-01-09T22:56:44.983Z,94640.66
2023-01-09T22:59:15.292Z,94611.00
2023-01-09T23:01:43.437Z,94665.94
2023-01-09T23:04:14.085Z,94589.66
2023-01-09T23:06:46.299Z,94664.06
2023-01-09T23:09:14.640Z,94643.75
2023-01-09T23:11:59.835Z,94669.88
2023-01-09T23:14:27.836Z,94659.13
2023-01-09T23:16:56.298Z,94580.59
2023-01-09T23:19:24.324Z,94610.09
2023-01-09T23:21:53.626Z,94606.84
2023-01-09T23:24:23.965Z,94624.56
2023-01-09T23:26:52.248Z,94617.34
2023-01-09T23:29:20.700Z,94613.91
2023-01-09T23:31:53.511Z,94619.47
2023-01-09T23:34:24.316Z,94669.78
2023-01-09T23:36:55.458Z,94616.75
2023-01-09T23:39:26.495Z,94548.06
2023-01-09T23:42:11.668Z,94624.22
2023-01-09T23:44:39.509Z,94605.03
2023-01-09T23:47:07.404Z,94585.19
2023-01-09T23:49:35.328Z,94577.50
2023-01-09T23:52:06.104Z,94610.06
2023-01-09T23:54:36.707Z,94589.34
2023-01-09T23:57:04.984Z,94557.91
2023-01-09T23:59:33.103Z,94600.00
